createdAt,value
2019-05-06T00:00:08.230Z,0
2019-05-06T00:01:06.754Z,0
2019-05-06T00:02:05.304Z,0
2019-05-06T00:03:05.003Z,0
2019-05-06T00:04:04.620Z,0
2019-05-06T00:05:00.993Z,0
2019-05-06T00:05:59.652Z,0
2019-05-06T00:06:58.328Z,0
2019-05-06T00:07:56.918Z,0
2019-05-06T00:08:55.494Z,0
2019-05-06T00:09:54.274Z,0
2019-05-06T00:10:54.219Z,0
2019-05-06T00:11:51.364Z,0
2019-05-06T00:12:49.935Z,0
2019-05-06T00:13:48.502Z,0
2019-05-06T00:14:47.273Z,0
2019-05-06T00:15:46.023Z,0
2019-05-06T00:16:44.586Z,0
2019-05-06T00:17:44.528Z,0
2019-05-06T00:18:41.935Z,0
2019-05-06T00:19:40.484Z,0
2019-05-06T00:20:39.027Z,0
2019-05-06T00:21:37.698Z,0
2019-05-06T00:22:36.248Z,0
2019-05-06T00:23:35.311Z,0
2019-05-06T00:24:34.741Z,0
2019-05-06T00:25:34.716Z,0
2019-05-06T00:26:30.793Z,0
2019-05-06T00:27:29.498Z,0
2019-05-06T00:28:28.086Z,0
2019-05-06T00:29:26.602Z,0
2019-05-06T00:30:25.173Z,0
2019-05-06T00:31:24.056Z,0
2019-05-06T00:32:24.265Z,0
2019-05-06T00:33:20.860Z,0
2019-05-06T00:34:19.559Z,0
2019-05-06T00:35:18.322Z,0
2019-05-06T00:36:16.881Z,0
2019-05-06T00:37:15.473Z,0
2019-05-06T00:38:14.324Z,0
2019-05-06T00:39:14.523Z,0
2019-05-06T00:40:11.668Z,0
2019-05-06T00:41:10.278Z,0
2019-05-06T00:42:08.847Z,0
2019-05-06T00:43:07.383Z,0
2019-05-06T00:44:06.016Z,0
2019-05-06T00:45:04.610Z,0
2019-05-06T00:46:04.614Z,0
2019-05-06T00:47:04.178Z,0
2019-05-06T00:48:00.409Z,0
2019-05-06T00:48:59.827Z,0
2019-05-06T00:49:57.751Z,0
2019-05-06T00:50:56.438Z,0
2019-05-06T00:51:55.142Z,0
2019-05-06T00:52:53.983Z,0
2019-05-06T00:53:54.345Z,0
2019-05-06T00:54:50.914Z,0
2019-05-06T00:55:49.605Z,0
2019-05-06T00:56:48.182Z,0
2019-05-06T00:57:46.729Z,0
2019-05-06T00:58:45.401Z,0
2019-05-06T00:59:44.253Z,0
2019-05-06T01:00:44.253Z,0
2019-05-06T01:01:43.376Z,0
2019-05-06T01:02:40.085Z,0
2019-05-06T01:03:38.648Z,0
2019-05-06T01:04:37.196Z,0
2019-05-06T01:05:35.765Z,0
2019-05-06T01:06:34.618Z,0
2019-05-06T01:07:34.445Z,0
2019-05-06T01:08:31.523Z,0
2019-05-06T01:09:30.588Z,0
2019-05-06T01:10:29.118Z,0
2019-05-06T01:11:27.771Z,0
2019-05-06T01:12:26.448Z,0
2019-05-06T01:13:25.024Z,0
2019-05-06T01:14:23.752Z,0
2019-05-06T01:15:23.825Z,0
2019-05-06T01:16:20.994Z,0
2019-05-06T01:17:19.805Z,0
2019-05-06T01:18:18.376Z,0
2019-05-06T01:19:16.953Z,0
2019-05-06T01:20:15.539Z,0
2019-05-06T01:21:14.612Z,0
2019-05-06T01:22:14.014Z,0
2019-05-06T01:23:11.373Z,0
2019-05-06T01:24:10.148Z,0
2019-05-06T01:25:08.706Z,0
2019-05-06T01:26:07.510Z,0
2019-05-06T01:27:06.091Z,0
2019-05-06T01:28:04.645Z,0
2019-05-06T01:29:04.011Z,0
2019-05-06T01:30:04.259Z,0
2019-05-06T01:31:00.764Z,0
2019-05-06T01:31:59.532Z,0
2019-05-06T01:32:58.141Z,0
2019-05-06T01:33:56.686Z,0
2019-05-06T01:34:55.234Z,0
2019-05-06T01:35:54.232Z,0
2019-05-06T01:36:54.312Z,0
2019-05-06T01:37:51.066Z,0
2019-05-06T01:38:49.905Z,0
2019-05-06T01:39:48.609Z,0
2019-05-06T01:40:47.550Z,0
2019-05-06T01:41:46.286Z,0
2019-05-06T01:42:44.820Z,0
2019-05-06T01:43:43.905Z,0
2019-05-06T01:44:44.123Z,0
2019-05-06T01:45:40.833Z,0
2019-05-06T01:46:39.378Z,0
2019-05-06T01:47:38.046Z,0
2019-05-06T01:48:36.620Z,0
2019-05-06T01:49:35.190Z,0
2019-05-06T01:50:34.483Z,0
2019-05-06T01:51:34.480Z,0
2019-05-06T01:52:31.181Z,0
2019-05-06T01:53:29.915Z,0
2019-05-06T01:54:28.729Z,0
2019-05-06T01:55:27.358Z,0
2019-05-06T01:56:26.218Z,0
2019-05-06T01:57:24.748Z,0
2019-05-06T01:58:24.250Z,0
2019-05-06T01:59:22.024Z,0
2019-05-06T02:00:20.553Z,0
2019-05-06T02:01:19.097Z,0
2019-05-06T02:02:17.646Z,0
2019-05-06T02:03:16.169Z,0
2019-05-06T02:04:14.707Z,0
2019-05-06T02:05:13.787Z,0
2019-05-06T02:07:55.016Z,0
2019-05-06T02:08:53.930Z,0
2019-05-06T02:09:50.925Z,0
2019-05-06T02:10:49.586Z,0
2019-05-06T02:11:48.370Z,0
2019-05-06T02:12:46.692Z,0
2019-05-06T02:13:45.244Z,0
2019-05-06T02:14:44.005Z,0
2019-05-06T02:15:42.573Z,0
2019-05-06T02:16:41.222Z,0
2019-05-06T02:17:39.927Z,0
2019-05-06T02:18:38.576Z,0
2019-05-06T02:19:37.137Z,0
2019-05-06T02:20:35.745Z,0
2019-05-06T02:21:34.484Z,0
2019-05-06T02:22:34.562Z,0
2019-05-06T02:23:33.677Z,0
2019-05-06T02:24:30.324Z,0
2019-05-06T02:25:28.857Z,0
2019-05-06T02:26:27.506Z,0
2019-05-06T02:27:26.334Z,0
2019-05-06T02:30:48.190Z,0
2019-05-06T02:31:46.860Z,0
2019-05-06T02:32:45.593Z,0
2019-05-06T02:33:44.831Z,0
2019-05-06T02:34:45.762Z,0
2019-05-06T02:35:41.627Z,0
2019-05-06T02:36:40.377Z,0
2019-05-06T02:37:38.996Z,0
2019-05-06T02:38:46.369Z,0
2019-05-06T02:39:36.567Z,0
2019-05-06T02:40:35.191Z,0
2019-05-06T02:41:34.022Z,0
2019-05-06T02:42:33.595Z,0
2019-05-06T02:43:34.276Z,0
2019-05-06T02:44:33.282Z,0
2019-05-06T02:45:28.774Z,0
2019-05-06T02:46:27.379Z,0
2019-05-06T02:47:26.007Z,0
2019-05-06T02:48:24.586Z,0
2019-05-06T02:49:23.771Z,0
2019-05-06T02:50:23.887Z,0
2019-05-06T02:51:20.510Z,0
2019-05-06T02:52:19.152Z,0
2019-05-06T02:53:17.867Z,0
2019-05-06T02:54:16.541Z,0
2019-05-06T02:55:15.090Z,0
2019-05-06T02:56:13.676Z,0
2019-05-06T02:57:13.099Z,0
2019-05-06T02:58:10.900Z,0
2019-05-06T02:59:12.495Z,0
2019-05-06T03:00:08.308Z,0
2019-05-06T03:01:06.851Z,0
2019-05-06T03:02:05.408Z,0
2019-05-06T03:03:04.213Z,0
2019-05-06T03:04:04.381Z,0
2019-05-06T03:05:04.216Z,0
2019-05-06T03:05:59.869Z,0
2019-05-06T03:06:58.454Z,0
2019-05-06T03:07:57.767Z,0
2019-05-06T03:08:55.709Z,0
2019-05-06T03:09:54.396Z,0
2019-05-06T03:10:53.513Z,0
2019-05-06T03:11:53.915Z,0
2019-05-06T03:12:53.376Z,0
2019-05-06T03:13:48.895Z,0
2019-05-06T03:14:47.452Z,0
2019-05-06T03:15:46.054Z,0
2019-05-06T03:16:44.600Z,0
2019-05-06T03:17:43.664Z,0
2019-05-06T03:18:43.304Z,0
2019-05-06T03:19:45.488Z,0
2019-05-06T03:20:39.394Z,0
2019-05-06T03:21:37.980Z,0
2019-05-06T03:22:36.543Z,0
2019-05-06T03:23:35.329Z,0
2019-05-06T03:24:33.708Z,0
2019-05-06T03:25:33.100Z,0
2019-05-06T03:26:33.102Z,0
2019-05-06T03:27:29.521Z,0
2019-05-06T03:28:28.218Z,0
2019-05-06T03:29:26.806Z,0
2019-05-06T03:30:25.911Z,0
2019-05-06T03:31:25.888Z,0
2019-05-06T03:32:29.670Z,0
2019-05-06T03:33:39.824Z,0
2019-05-06T03:34:37.966Z,0
2019-05-06T03:35:32.122Z,0
2019-05-06T03:36:25.445Z,0
2019-05-06T03:37:17.357Z,0
2019-05-06T03:38:14.857Z,0
2019-05-06T03:39:13.917Z,0
2019-05-06T03:40:13.808Z,0
2019-05-06T03:41:13.619Z,0
2019-05-06T03:42:09.246Z,0
2019-05-06T03:43:08.043Z,0
2019-05-06T03:44:06.593Z,0
2019-05-06T03:45:05.222Z,0
2019-05-06T03:46:04.529Z,0
2019-05-06T03:47:04.999Z,0
2019-05-06T03:48:05.164Z,0
2019-05-06T03:48:59.833Z,0
2019-05-06T03:49:58.504Z,0
2019-05-06T03:50:57.043Z,0
2019-05-06T03:51:56.343Z,0
2019-05-06T03:52:56.376Z,0
2019-05-06T03:53:53.943Z,0
2019-05-06T03:54:53.562Z,0
2019-05-06T03:55:53.734Z,0
2019-05-06T03:56:49.237Z,0
2019-05-06T03:57:48.085Z,0
2019-05-06T03:58:46.714Z,0
2019-05-06T03:59:45.259Z,0
2019-05-06T04:00:43.988Z,0
2019-05-06T04:01:43.026Z,0
2019-05-06T04:02:43.402Z,0
2019-05-06T04:03:48.438Z,0
2019-05-06T04:04:38.548Z,0
2019-05-06T04:05:37.134Z,0
2019-05-06T04:06:35.755Z,0
2019-05-06T04:07:34.314Z,0
2019-05-06T04:08:34.140Z,0
2019-05-06T04:09:33.497Z,0
2019-05-06T04:10:29.920Z,0
2019-05-06T04:11:28.467Z,0
2019-05-06T04:12:27.070Z,0
2019-05-06T04:13:25.763Z,0
2019-05-06T04:14:24.389Z,0
2019-05-06T04:15:26.583Z,0
2019-05-06T04:16:23.016Z,0
2019-05-06T04:17:23.509Z,0
2019-05-06T04:18:18.911Z,0
2019-05-06T04:19:17.458Z,0
2019-05-06T04:20:16.040Z,0
2019-05-06T04:21:16.620Z,0
2019-05-06T04:22:13.263Z,0
2019-05-06T04:23:13.339Z,0
2019-05-06T04:24:13.115Z,0
2019-05-06T04:25:09.190Z,0
2019-05-06T04:26:08.070Z,5
2019-05-06T04:27:06.632Z,5
2019-05-06T04:28:05.183Z,5
2019-05-06T04:29:04.116Z,5
2019-05-06T04:30:04.566Z,5
2019-05-06T04:31:02.622Z,5
2019-05-06T04:31:59.820Z,5
2019-05-06T04:32:58.608Z,5
2019-05-06T04:34:09.626Z,10
2019-05-06T04:34:55.723Z,10
2019-05-06T04:35:54.438Z,10
2019-05-06T04:36:53.447Z,10
2019-05-06T04:37:53.776Z,15
2019-05-06T04:38:50.281Z,15
2019-05-06T04:39:48.828Z,15
2019-05-06T04:40:47.507Z,20
2019-05-06T04:41:46.296Z,20
2019-05-06T04:42:44.854Z,25
2019-05-06T04:43:43.962Z,25
2019-05-06T04:44:43.804Z,25
2019-05-06T04:45:43.002Z,30
2019-05-06T04:46:39.241Z,30
2019-05-06T04:47:38.083Z,35
2019-05-06T04:48:36.631Z,35
2019-05-06T04:49:35.176Z,35
2019-05-06T04:50:33.923Z,40
2019-05-06T04:51:32.755Z,40
2019-05-06T04:52:34.134Z,40
2019-05-06T04:53:33.410Z,40
2019-05-06T04:54:28.588Z,40
2019-05-06T04:55:27.204Z,40
2019-05-06T04:56:26.029Z,40
2019-05-06T04:57:24.574Z,40
2019-05-06T04:58:23.558Z,40
2019-05-06T04:59:23.147Z,40
2019-05-06T05:00:23.233Z,40
2019-05-06T05:01:19.576Z,40
2019-05-06T05:02:18.111Z,40
2019-05-06T05:03:16.757Z,40
2019-05-06T05:04:27.542Z,40
2019-05-06T05:05:14.318Z,40
2019-05-06T05:06:13.558Z,40
2019-05-06T05:08:53.339Z,40
2019-05-06T05:09:53.473Z,40
2019-05-06T05:10:52.705Z,40
2019-05-06T05:11:48.837Z,40
2019-05-06T05:12:47.558Z,40
2019-05-06T05:13:46.240Z,45
2019-05-06T05:14:44.781Z,45
2019-05-06T05:15:43.355Z,45
2019-05-06T05:16:42.221Z,45
2019-05-06T05:17:42.079Z,45
2019-05-06T05:18:39.659Z,45
2019-05-06T05:19:38.368Z,40
2019-05-06T05:20:41.832Z,40
2019-05-06T05:21:35.596Z,40
2019-05-06T05:22:34.389Z,40
2019-05-06T05:23:32.926Z,40
2019-05-06T05:24:31.748Z,45
2019-05-06T05:25:30.191Z,45
2019-05-06T05:26:28.815Z,50
2019-05-06T05:27:27.442Z,50
2019-05-06T05:28:26.113Z,55
2019-05-06T05:29:24.762Z,60
2019-05-06T05:30:23.267Z,60
2019-05-06T05:33:03.853Z,75
2019-05-06T05:34:02.499Z,80
2019-05-06T05:35:02.014Z,85
2019-05-06T05:36:01.944Z,90
2019-05-06T05:36:58.530Z,90
2019-05-06T05:37:57.074Z,90
2019-05-06T05:38:55.621Z,90
2019-05-06T05:39:54.245Z,90
2019-05-06T05:40:52.865Z,90
2019-05-06T05:41:52.093Z,95
2019-05-06T05:42:52.051Z,90
2019-05-06T05:43:48.962Z,90
2019-05-06T05:44:47.534Z,95
2019-05-06T05:45:46.100Z,95
2019-05-06T05:46:44.634Z,95
2019-05-06T05:47:43.461Z,95
2019-05-06T05:48:42.458Z,95
2019-05-06T05:49:42.052Z,95
2019-05-06T05:50:41.905Z,95
2019-05-06T05:51:38.590Z,90
2019-05-06T05:52:37.135Z,85
2019-05-06T05:53:35.879Z,80
2019-05-06T05:54:34.533Z,80
2019-05-06T05:55:33.143Z,75
2019-05-06T05:56:32.886Z,75
2019-05-06T05:57:32.166Z,70
2019-05-06T05:58:28.985Z,70
2019-05-06T05:59:27.659Z,75
2019-05-06T06:00:26.333Z,75
2019-05-06T06:01:24.907Z,75
2019-05-06T06:02:23.664Z,75
2019-05-06T06:03:22.360Z,75
2019-05-06T06:04:22.314Z,80
2019-05-06T06:05:21.815Z,85
2019-05-06T06:06:18.465Z,90
2019-05-06T06:07:17.504Z,95
2019-05-06T06:08:16.144Z,100
2019-05-06T06:09:14.725Z,105
2019-05-06T06:10:13.278Z,110
2019-05-06T06:11:12.293Z,115
2019-05-06T06:12:12.028Z,115
2019-05-06T06:13:09.318Z,120
2019-05-06T06:14:08.009Z,120
2019-05-06T06:15:06.587Z,120
2019-05-06T06:16:05.426Z,120
2019-05-06T06:18:45.511Z,130
2019-05-06T06:19:44.178Z,130
2019-05-06T06:20:42.716Z,130
2019-05-06T06:21:42.765Z,130
2019-05-06T06:22:40.024Z,135
2019-05-06T06:23:38.607Z,140
2019-05-06T06:26:38.018Z,145
2019-05-06T06:29:03.230Z,145
2019-05-06T06:30:02.383Z,145
2019-05-06T06:30:59.664Z,145
2019-05-06T06:31:58.401Z,150
2019-05-06T06:32:56.954Z,150
2019-05-06T06:33:55.616Z,155
2019-05-06T06:35:07.317Z,155
2019-05-06T06:35:52.998Z,155
2019-05-06T06:36:52.562Z,160
2019-05-06T06:37:52.179Z,160
2019-05-06T06:38:48.652Z,160
2019-05-06T06:39:47.439Z,160
2019-05-06T06:40:46.218Z,160
2019-05-06T06:41:44.807Z,160
2019-05-06T06:42:43.439Z,160
2019-05-06T06:43:42.162Z,155
2019-05-06T06:44:42.375Z,150
2019-05-06T06:45:39.461Z,155
2019-05-06T06:46:38.320Z,165
2019-05-06T06:47:36.870Z,180
2019-05-06T06:48:35.442Z,195
2019-05-06T06:49:34.154Z,215
2019-05-06T06:50:32.979Z,230
2019-05-06T06:51:33.030Z,230
2019-05-06T06:52:32.388Z,255
2019-05-06T06:53:28.661Z,270
2019-05-06T06:54:27.311Z,265
2019-05-06T06:55:26.010Z,285
2019-05-06T06:56:24.668Z,270
2019-05-06T06:57:23.281Z,290
2019-05-06T06:58:22.709Z,280
2019-05-06T06:59:22.153Z,280
2019-05-06T07:00:18.983Z,275
2019-05-06T07:01:17.588Z,275
2019-05-06T07:02:16.230Z,285
2019-05-06T07:03:14.783Z,270
2019-05-06T07:04:13.590Z,270
2019-05-06T07:05:24.208Z,275
2019-05-06T07:06:12.665Z,290
2019-05-06T07:07:09.567Z,290
2019-05-06T07:08:08.209Z,305
2019-05-06T07:09:06.762Z,290
2019-05-06T07:10:05.348Z,300
2019-05-06T07:11:04.174Z,280
2019-05-06T07:12:03.422Z,270
2019-05-06T07:13:02.842Z,255
2019-05-06T07:14:02.378Z,250
2019-05-06T07:14:58.709Z,255
2019-05-06T07:15:57.482Z,260
2019-05-06T07:16:56.268Z,215
2019-05-06T07:17:54.828Z,225
2019-05-06T07:18:53.494Z,235
2019-05-06T07:19:52.987Z,235
2019-05-06T07:20:52.535Z,235
2019-05-06T07:21:52.005Z,235
2019-05-06T07:22:48.743Z,230
2019-05-06T07:23:47.364Z,230
2019-05-06T07:24:46.068Z,225
2019-05-06T07:25:44.655Z,220
2019-05-06T07:26:43.211Z,220
2019-05-06T07:27:42.171Z,230
2019-05-06T07:28:43.350Z,235
2019-05-06T07:29:39.229Z,245
2019-05-06T07:30:37.816Z,250
2019-05-06T07:31:36.379Z,265
2019-05-06T07:32:34.956Z,270
2019-05-06T07:33:33.796Z,270
2019-05-06T07:34:32.338Z,270
2019-05-06T07:35:38.270Z,260
2019-05-06T07:36:29.587Z,250
2019-05-06T07:37:28.432Z,245
2019-05-06T07:38:27.022Z,240
2019-05-06T07:39:25.737Z,245
2019-05-06T07:40:24.467Z,250
2019-05-06T07:41:23.543Z,255
2019-05-06T07:42:22.679Z,255
2019-05-06T07:43:21.993Z,250
2019-05-06T07:44:19.172Z,250
2019-05-06T07:45:17.963Z,245
2019-05-06T07:46:16.545Z,250
2019-05-06T07:47:15.728Z,250
2019-05-06T07:48:13.766Z,255
2019-05-06T07:49:12.686Z,255
2019-05-06T07:50:13.002Z,255
2019-05-06T07:51:09.586Z,265
2019-05-06T07:52:08.159Z,270
2019-05-06T07:53:06.785Z,265
2019-05-06T07:54:05.450Z,260
2019-05-06T07:55:04.364Z,245
2019-05-06T07:56:03.603Z,245
2019-05-06T07:57:02.362Z,230
2019-05-06T07:58:00.228Z,215
2019-05-06T07:58:58.729Z,205
2019-05-06T07:59:57.369Z,195
2019-05-06T08:00:56.466Z,190
2019-05-06T08:01:55.045Z,190
2019-05-06T08:02:53.786Z,190
2019-05-06T08:03:53.220Z,195
2019-05-06T08:04:52.938Z,200
2019-05-06T08:05:55.646Z,210
2019-05-06T08:06:48.415Z,215
2019-05-06T08:07:46.973Z,220
2019-05-06T08:08:45.712Z,225
2019-05-06T08:09:44.354Z,235
2019-05-06T08:10:42.924Z,235
2019-05-06T08:11:42.199Z,235
2019-05-06T08:12:40.264Z,230
2019-05-06T08:13:38.824Z,240
2019-05-06T08:14:37.665Z,235
2019-05-06T08:15:36.497Z,235
2019-05-06T08:16:35.049Z,240
2019-05-06T08:17:33.602Z,250
2019-05-06T08:18:32.947Z,255
2019-05-06T08:19:33.269Z,250
2019-05-06T08:20:29.358Z,245
2019-05-06T08:21:28.318Z,240
2019-05-06T08:22:26.880Z,240
2019-05-06T08:23:25.454Z,240
2019-05-06T08:24:24.078Z,235
2019-05-06T08:25:23.003Z,230
2019-05-06T08:26:22.404Z,225
2019-05-06T08:27:19.970Z,215
2019-05-06T08:28:18.563Z,210
2019-05-06T08:29:17.112Z,210
2019-05-06T08:30:15.882Z,215
2019-05-06T08:31:14.577Z,220
2019-05-06T08:32:13.175Z,220
2019-05-06T08:33:12.831Z,220
2019-05-06T08:35:53.293Z,210
2019-05-06T08:36:50.565Z,200
2019-05-06T08:37:49.147Z,200
2019-05-06T08:38:47.934Z,215
2019-05-06T08:39:46.671Z,205
2019-05-06T08:40:45.267Z,185
2019-05-06T08:41:44.021Z,185
2019-05-06T08:42:42.771Z,185
2019-05-06T08:43:42.186Z,205
2019-05-06T08:44:42.467Z,190
2019-05-06T08:45:38.725Z,190
2019-05-06T08:46:37.337Z,195
2019-05-06T08:47:35.899Z,210
2019-05-06T08:48:34.468Z,195
2019-05-06T08:49:33.051Z,205
2019-05-06T08:50:32.466Z,200
2019-05-06T08:51:32.934Z,190
2019-05-06T08:52:29.174Z,190
2019-05-06T08:53:27.729Z,190
2019-05-06T08:54:26.439Z,190
2019-05-06T08:55:24.974Z,210
2019-05-06T08:56:23.556Z,210
2019-05-06T09:04:51.774Z,190
2019-05-06T09:05:49.145Z,195
2019-05-06T09:06:47.703Z,195
2019-05-06T09:07:46.450Z,200
2019-05-06T09:08:44.997Z,210
2019-05-06T09:09:43.735Z,225
2019-05-06T09:10:42.904Z,235
2019-05-06T09:11:43.082Z,235
2019-05-06T09:12:42.292Z,235
2019-05-06T09:13:38.334Z,235
2019-05-06T09:14:36.901Z,235
2019-05-06T09:15:35.463Z,230
2019-05-06T09:16:34.255Z,230
2019-05-06T09:17:33.088Z,230
2019-05-06T09:18:32.873Z,240
2019-05-06T09:19:32.878Z,245
2019-05-06T09:20:29.011Z,250
2019-05-06T09:21:27.570Z,240
2019-05-06T09:22:26.507Z,220
2019-05-06T09:23:27.486Z,220
2019-05-06T09:24:23.724Z,230
2019-05-06T09:25:23.115Z,205
2019-05-06T09:26:22.420Z,205
2019-05-06T09:27:19.549Z,210
2019-05-06T09:28:18.108Z,220
2019-05-06T09:29:16.720Z,215
2019-05-06T09:30:15.324Z,210
2019-05-06T09:31:13.978Z,195
2019-05-06T09:32:13.902Z,185
2019-05-06T09:33:12.867Z,175
2019-05-06T09:34:12.868Z,160
2019-05-06T09:35:08.854Z,150
2019-05-06T09:36:07.633Z,140
2019-05-06T09:37:06.400Z,140
2019-05-06T09:38:05.110Z,135
2019-05-06T09:39:03.733Z,135
2019-05-06T09:40:02.905Z,135
2019-05-06T09:41:04.771Z,135
2019-05-06T09:41:59.605Z,140
2019-05-06T09:42:58.442Z,140
2019-05-06T09:43:56.989Z,140
2019-05-06T09:44:55.764Z,140
2019-05-06T09:45:54.333Z,135
2019-05-06T09:46:53.157Z,135
2019-05-06T09:47:52.925Z,135
2019-05-06T09:48:52.591Z,135
2019-05-06T09:49:48.799Z,135
2019-05-06T09:50:47.403Z,135
2019-05-06T09:51:46.093Z,140
2019-05-06T09:52:44.781Z,145
2019-05-06T09:53:43.451Z,150
2019-05-06T09:54:42.713Z,160
2019-05-06T09:55:42.868Z,165
2019-05-06T09:56:39.094Z,170
2019-05-06T09:57:37.691Z,175
2019-05-06T09:58:36.287Z,180
2019-05-06T09:59:34.843Z,185
2019-05-06T10:00:33.375Z,190
2019-05-06T10:01:33.103Z,190
2019-05-06T10:02:32.515Z,190
2019-05-06T10:03:29.510Z,190
2019-05-06T10:04:28.125Z,195
2019-05-06T10:05:26.718Z,195
2019-05-06T10:06:25.551Z,200
2019-05-06T10:07:24.334Z,210
2019-05-06T10:08:22.890Z,195
2019-05-06T10:09:24.831Z,190
2019-05-06T10:10:22.228Z,185
2019-05-06T10:11:18.809Z,170
2019-05-06T10:12:17.525Z,160
2019-05-06T10:13:16.620Z,155
2019-05-06T10:14:15.329Z,150
2019-05-06T10:15:13.811Z,140
2019-05-06T10:16:12.934Z,135
2019-05-06T10:17:12.997Z,130
2019-05-06T10:18:12.552Z,125
2019-05-06T10:19:08.445Z,120
2019-05-06T10:20:07.025Z,120
2019-05-06T10:21:05.661Z,120
2019-05-06T10:22:04.358Z,120
2019-05-06T10:23:02.890Z,120
2019-05-06T10:24:02.153Z,120
2019-05-06T10:25:00.022Z,125
2019-05-06T10:25:58.606Z,125
2019-05-06T10:26:57.574Z,125
2019-05-06T10:27:57.279Z,130
2019-05-06T10:28:54.947Z,135
2019-05-06T10:29:53.541Z,140
2019-05-06T10:30:52.074Z,150
2019-05-06T10:31:52.342Z,155
2019-05-06T10:32:49.458Z,160
2019-05-06T10:33:48.253Z,165
2019-05-06T10:34:47.062Z,170
2019-05-06T10:35:45.602Z,170
2019-05-06T10:36:44.751Z,175
2019-05-06T10:37:43.337Z,175
2019-05-06T10:38:42.448Z,180
2019-05-06T10:39:40.634Z,185
2019-05-06T10:40:55.441Z,190
2019-05-06T10:41:37.893Z,195
2019-05-06T10:42:36.594Z,200
2019-05-06T10:43:35.205Z,200
2019-05-06T10:44:33.932Z,205
2019-05-06T10:45:32.672Z,210
2019-05-06T10:46:31.126Z,215
2019-05-06T10:47:29.782Z,220
2019-05-06T10:48:28.347Z,220
2019-05-06T10:49:26.924Z,225
2019-05-06T10:50:25.674Z,225
2019-05-06T10:51:24.416Z,225
2019-05-06T10:52:22.966Z,225
2019-05-06T10:53:23.265Z,230
2019-05-06T10:54:22.747Z,235
2019-05-06T10:55:18.890Z,235
2019-05-06T10:56:17.497Z,240
2019-05-06T10:57:16.235Z,240
2019-05-06T10:58:14.799Z,245
2019-05-06T10:59:13.338Z,245
2019-05-06T11:00:12.406Z,245
2019-05-06T11:01:12.466Z,245
2019-05-06T11:02:09.557Z,245
2019-05-06T11:03:08.058Z,245
2019-05-06T11:04:06.718Z,245
2019-05-06T11:05:05.376Z,245
2019-05-06T11:06:04.232Z,240
2019-05-06T11:07:03.984Z,240
2019-05-06T11:08:02.309Z,240
2019-05-06T11:09:00.030Z,250
2019-05-06T11:09:58.620Z,255
2019-05-06T11:11:11.000Z,255
2019-05-06T11:11:55.686Z,250
2019-05-06T11:12:54.263Z,245
2019-05-06T11:13:52.806Z,240
2019-05-06T11:14:53.136Z,225
2019-05-06T11:15:52.721Z,220
2019-05-06T11:16:48.917Z,220
2019-05-06T11:17:47.547Z,210
2019-05-06T11:18:46.266Z,205
2019-05-06T11:19:44.836Z,195
2019-05-06T11:20:43.998Z,195
2019-05-06T11:21:44.977Z,195
2019-05-06T11:22:43.317Z,190
2019-05-06T11:23:41.755Z,190
2019-05-06T11:24:38.313Z,195
2019-05-06T11:25:37.736Z,205
2019-05-06T11:26:35.438Z,210
2019-05-06T11:27:37.102Z,220
2019-05-06T11:28:34.697Z,220
2019-05-06T11:29:33.858Z,220
2019-05-06T11:30:30.162Z,220
2019-05-06T11:31:28.867Z,220
2019-05-06T11:32:27.348Z,220
2019-05-06T11:33:25.933Z,220
2019-05-06T11:34:24.506Z,220
2019-05-06T11:35:23.073Z,220
2019-05-06T11:36:22.960Z,220
2019-05-06T11:37:22.954Z,220
2019-05-06T11:38:19.228Z,220
2019-05-06T11:39:17.795Z,220
2019-05-06T11:40:16.938Z,220
2019-05-06T11:41:15.241Z,225
2019-05-06T11:42:27.402Z,225
2019-05-06T11:43:12.856Z,225
2019-05-06T11:44:12.704Z,225
2019-05-06T11:45:12.139Z,230
2019-05-06T11:46:08.701Z,235
2019-05-06T11:47:07.243Z,235
2019-05-06T11:48:05.966Z,240
2019-05-06T11:49:04.648Z,245
2019-05-06T11:50:05.046Z,240
2019-05-06T11:51:02.011Z,240
2019-05-06T11:52:02.327Z,240
2019-05-06T11:52:59.254Z,240
2019-05-06T11:53:57.879Z,240
2019-05-06T11:54:56.450Z,240
2019-05-06T11:55:55.218Z,245
2019-05-06T11:56:58.044Z,245
2019-05-06T11:57:52.897Z,250
2019-05-06T11:58:53.110Z,255
2019-05-06T11:59:49.588Z,250
2019-05-06T12:00:48.362Z,255
2019-05-06T12:01:46.941Z,265
2019-05-06T12:02:48.554Z,260
2019-05-06T12:03:44.252Z,260
2019-05-06T12:04:42.902Z,250
2019-05-06T12:05:41.832Z,250
2019-05-06T12:06:42.298Z,250
2019-05-06T12:07:39.006Z,255
2019-05-06T12:08:37.573Z,255
2019-05-06T12:09:36.093Z,250
2019-05-06T12:10:34.665Z,250
2019-05-06T12:11:33.375Z,250
2019-05-06T12:12:32.223Z,255
2019-05-06T12:13:33.517Z,250
2019-05-06T12:14:29.349Z,265
2019-05-06T12:15:28.043Z,245
2019-05-06T12:16:26.644Z,235
2019-05-06T12:17:25.191Z,240
2019-05-06T12:18:23.801Z,235
2019-05-06T12:19:22.689Z,245
2019-05-06T12:20:22.179Z,225
2019-05-06T12:21:19.707Z,210
2019-05-06T12:22:18.529Z,190
2019-05-06T12:23:17.098Z,175
2019-05-06T12:24:15.701Z,175
2019-05-06T12:25:15.800Z,160
2019-05-06T12:26:14.434Z,155
2019-05-06T12:27:13.024Z,150
2019-05-06T12:28:12.342Z,145
2019-05-06T12:29:12.506Z,140
2019-05-06T12:30:08.935Z,130
2019-05-06T12:31:07.715Z,130
2019-05-06T12:32:06.447Z,135
2019-05-06T12:33:05.021Z,130
2019-05-06T12:34:03.799Z,130
2019-05-06T12:35:03.278Z,130
2019-05-06T12:36:02.521Z,130
2019-05-06T12:36:59.541Z,130
2019-05-06T12:37:58.342Z,135
2019-05-06T12:38:56.939Z,135
2019-05-06T12:39:55.547Z,135
2019-05-06T12:40:54.418Z,135
2019-05-06T12:41:53.524Z,135
2019-05-06T12:42:53.412Z,130
2019-05-06T12:43:50.166Z,120
2019-05-06T12:44:48.743Z,130
2019-05-06T12:45:47.314Z,135
2019-05-06T12:46:45.957Z,140
2019-05-06T12:47:44.699Z,135
2019-05-06T12:48:43.966Z,140
2019-05-06T12:49:42.568Z,140
2019-05-06T12:50:42.832Z,145
2019-05-06T12:51:39.117Z,145
2019-05-06T12:52:37.688Z,150
2019-05-06T12:53:36.222Z,155
2019-05-06T12:54:34.802Z,155
2019-05-06T12:55:33.806Z,155
2019-05-06T12:56:32.422Z,160
2019-05-06T12:57:34.071Z,160
2019-05-06T12:58:29.637Z,160
2019-05-06T12:59:28.279Z,150
2019-05-06T13:00:26.881Z,165
2019-05-06T13:01:25.627Z,170
2019-05-06T13:02:24.479Z,170
2019-05-06T13:03:23.580Z,160
2019-05-06T13:04:43.705Z,165
2019-05-06T13:05:20.497Z,170
2019-05-06T13:06:19.075Z,190
2019-05-06T13:07:17.830Z,195
2019-05-06T13:08:19.764Z,175
2019-05-06T13:09:15.780Z,175
2019-05-06T13:10:14.524Z,175
2019-05-06T13:11:13.394Z,175
2019-05-06T13:12:12.348Z,170
2019-05-06T13:13:12.215Z,165
2019-05-06T13:14:09.096Z,160
2019-05-06T13:15:08.348Z,155
2019-05-06T13:16:06.676Z,150
2019-05-06T13:17:05.254Z,150
2019-05-06T13:18:06.940Z,155
2019-05-06T13:20:49.376Z,155
2019-05-06T13:21:42.935Z,150
2019-05-06T13:22:41.507Z,145
2019-05-06T13:23:40.181Z,160
2019-05-06T13:24:38.864Z,150
2019-05-06T13:25:37.436Z,150
2019-05-06T13:26:36.395Z,140
2019-05-06T13:27:34.939Z,140
2019-05-06T13:28:33.714Z,140
2019-05-06T13:29:35.354Z,140
2019-05-06T13:30:32.584Z,140
2019-05-06T13:31:29.658Z,140
2019-05-06T13:32:28.235Z,140
2019-05-06T13:33:26.877Z,145
2019-05-06T13:34:25.569Z,145
2019-05-06T13:35:24.415Z,145
2019-05-06T13:36:23.028Z,155
2019-05-06T13:37:22.827Z,145
2019-05-06T13:38:22.035Z,150
2019-05-06T13:39:18.798Z,155
2019-05-06T13:40:17.431Z,165
2019-05-06T13:41:16.032Z,165
2019-05-06T13:42:14.608Z,170
2019-05-06T13:43:13.478Z,175
2019-05-06T13:44:13.095Z,175
2019-05-06T13:45:12.116Z,180
2019-05-06T13:46:09.228Z,175
2019-05-06T13:47:07.858Z,180
2019-05-06T13:48:06.465Z,180
2019-05-06T13:49:05.027Z,180
2019-05-06T13:50:03.764Z,180
2019-05-06T13:51:03.341Z,180
2019-05-06T13:52:04.183Z,180
2019-05-06T13:53:08.833Z,175
2019-05-06T13:53:58.611Z,175
2019-05-06T13:54:57.233Z,175
2019-05-06T13:55:56.122Z,180
2019-05-06T13:56:54.799Z,180
2019-05-06T13:57:53.373Z,190
2019-05-06T13:58:52.623Z,190
2019-05-06T13:59:53.181Z,190
2019-05-06T14:00:49.207Z,195
2019-05-06T14:01:47.945Z,195
2019-05-06T14:05:03.137Z,205
2019-05-06T14:06:02.971Z,200
2019-05-06T14:07:02.492Z,205
2019-05-06T14:08:02.429Z,185
2019-05-06T14:08:57.683Z,180
2019-05-06T14:09:56.445Z,170
2019-05-06T14:10:59.285Z,165
2019-05-06T14:11:53.611Z,160
2019-05-06T14:12:53.155Z,155
2019-05-06T14:13:52.897Z,150
2019-05-06T14:14:49.591Z,145